Weddell Sea — WDG2226 — position and weather

sailwx.info

Track history (hours):
 
Tides and Currents Weather Stations Pressure Air Temp Water Temp Dewpoint Dewpoint Depression Visibility Wind Speed Wind Dir Waves Ship Positions

Weddell Sea

Owner: Kirby Offshore Marine, LLC, Staten Island, NY. More information available from US FCC via Universal Licensing System and Coast Guard Vessel Documentation Center.

Last reported at 2018-Jul-20 02:19 UTC. Time now 2018-Jul-20 02:55 UTC.
Position N 32°07' W 081°07'.

Length 34 m; draft 5 m.

Type: Tow > 200 m length. MMSI: 367175780.

Date/timePositionNaut miles runAvg speedWind from/ knotsBaromVisibWave heightAir tempDewpointWater temp
2018-Jul-20 02:19N 32°07' W 081°07'0 0.0
2018-Jul-20 01:55N 32°07' W 081°07'0 0.0
2018-Jul-20 01:25N 32°07' W 081°07'0 0.0
2018-Jul-20 00:49N 32°07' W 081°07'0 0.0
2018-Jul-20 00:13N 32°07' W 081°07'0 0.0
2018-Jul-19 23:55N 32°07' W 081°07'0 0.0
2018-Jul-19 23:25N 32°07' W 081°07'0 0.0
2018-Jul-19 23:00N 32°07' W 081°07'0 0.0
2018-Jul-19 22:30N 32°07' W 081°07'0 0.0
2018-Jul-19 22:00N 32°07' W 081°07'0 0.0
2018-Jul-19 21:30N 32°07' W 081°07'0 0.0
2018-Jul-19 21:00N 32°07' W 081°07'0 0.0
2018-Jul-19 20:30N 32°07' W 081°07'0 0.0
2018-Jul-19 20:00N 32°07' W 081°07'0 0.0
2018-Jul-19 19:30N 32°07' W 081°07'0 0.0
2018-Jul-19 19:00N 32°07' W 081°07'0 0.2
2018-Jul-19 18:30N 32°07' W 081°07'3 5.3
2018-Jul-19 18:00N 32°05' W 081°05'4 7.6
2018-Jul-19 17:29N 32°06' W 081°01'5 9.6
2018-Jul-19 16:58N 32°03' W 080°56'4 8.6
2018-Jul-19 16:30N 32°02' W 080°51'2 5.0
2018-Jul-19 16:01N 32°02' W 080°49'0 0.2
2018-Jul-19 15:30N 32°02' W 080°49'1 1.5
2018-Jul-19 15:00N 32°01' W 080°48'7 6.7
2018-Jul-19 14:00N 31°57' W 080°42'2 3.2
2018-Jul-19 13:29N 31°55' W 080°42'3 4.3
2018-Jul-19 12:41N 31°52' W 080°43'1 7.6
2018-Jul-19 12:30N 31°53' W 080°44'4 7.5
2018-Jul-19 12:00N 31°57' W 080°44'3 5.1
2018-Jul-19 11:30N 31°59' W 080°45'3 6.9
2018-Jul-19 11:00N 32°01' W 080°48'4 8.0
2018-Jul-19 10:30N 32°02' W 080°53'4 8.2
2018-Jul-19 09:59N 32°04' W 080°57'4 7.6
2018-Jul-19 09:30N 32°06' W 081°01'4 8.0
2018-Jul-19 09:00N 32°05' W 081°06'2 2.9
2018-Jul-19 08:20N 32°07' W 081°07'0 0.1
2018-Jul-19 07:56N 32°07' W 081°07'0 0.0
2018-Jul-19 07:26N 32°07' W 081°07'0 0.1
2018-Jul-19 06:56N 32°07' W 081°07'0 0.0
2018-Jul-19 06:26N 32°07' W 081°07'0 0.0
2018-Jul-19 05:56N 32°07' W 081°07'0 0.0
2018-Jul-19 05:26N 32°07' W 081°07'0 0.0
2018-Jul-19 04:56N 32°07' W 081°07'0 0.0
2018-Jul-19 04:26N 32°07' W 081°07'0 0.0
2018-Jul-19 03:56N 32°07' W 081°07'0 0.0
2018-Jul-19 03:26N 32°07' W 081°07'0 0.0
2018-Jul-19 02:56N 32°07' W 081°07'0 0.0
2018-Jul-19 02:26N 32°07' W 081°07'0 0.0
2018-Jul-19 01:56N 32°07' W 081°07'0 0.0
2018-Jul-19 01:26N 32°07' W 081°07'0 0.0
2018-Jul-19 00:56N 32°07' W 081°07'0 0.0
2018-Jul-19 00:26N 32°07' W 081°07'0 0.0
2018-Jul-18 23:56N 32°07' W 081°07'0 0.0
2018-Jul-18 23:26N 32°07' W 081°07'0 0.0
2018-Jul-18 22:56N 32°07' W 081°07'0 0.0
2018-Jul-18 22:26N 32°07' W 081°07'0 0.0
2018-Jul-18 21:56N 32°07' W 081°07'0 0.0
2018-Jul-18 21:26N 32°07' W 081°07'0 0.0
2018-Jul-18 20:56N 32°07' W 081°07'0 0.0
2018-Jul-18 20:26N 32°07' W 081°07'0 0.0
2018-Jul-18 19:56N 32°07' W 081°07'0 0.0
2018-Jul-18 19:26N 32°07' W 081°07'0 0.0
2018-Jul-18 18:56N 32°07' W 081°07'0 0.0
2018-Jul-18 18:26N 32°07' W 081°07'0 0.0
2018-Jul-18 17:56N 32°07' W 081°07'0 0.0
2018-Jul-18 17:26N 32°07' W 081°07'0 0.0
2018-Jul-18 16:56N 32°07' W 081°07'0 0.0
2018-Jul-18 16:14N 32°07' W 081°07'0 0.0
2018-Jul-18 15:44N 32°07' W 081°07'0 0.0
2018-Jul-18 15:26N 32°07' W 081°07'0 0.0
2018-Jul-18 14:50N 32°07' W 081°07'0 0.0
2018-Jul-18 14:26N 32°07' W 081°07'0 0.0
2018-Jul-18 13:26N 32°07' W 081°07'0 0.0
2018-Jul-18 12:56N 32°07' W 081°07'0 0.0
2018-Jul-18 12:26N 32°07' W 081°07'0 0.0
2018-Jul-18 11:44N 32°07' W 081°07'0 0.0
2018-Jul-18 11:26N 32°07' W 081°07'0 0.0
2018-Jul-18 10:20N 32°07' W 081°07'0 0.0
2018-Jul-18 09:50N 32°07' W 081°07'0 0.0
2018-Jul-18 09:26N 32°07' W 081°07'0 0.0
2018-Jul-18 08:56N 32°07' W 081°07'0 0.0
2018-Jul-18 08:26N 32°07' W 081°07'0 0.0
2018-Jul-18 07:50N 32°07' W 081°07'0 0.0
2018-Jul-18 07:26N 32°07' W 081°07'0 0.0
2018-Jul-18 06:56N 32°07' W 081°07'0 0.0
2018-Jul-18 06:26N 32°07' W 081°07'0 0.0
2018-Jul-18 05:56N 32°07' W 081°07'0 0.0
2018-Jul-18 05:14N 32°07' W 081°07'0 0.0
2018-Jul-18 04:56N 32°07' W 081°07'0 0.0
2018-Jul-18 04:26N 32°07' W 081°07'0 0.0
2018-Jul-18 03:56N 32°07' W 081°07'0 0.0
2018-Jul-18 03:20N 32°07' W 081°07'0 0.0
2018-Jul-18 02:56N 32°07' W 081°07'0 0.0
2018-Jul-18 02:26N 32°07' W 081°07'0 0.0
2018-Jul-18 01:56N 32°07' W 081°07'0 0.0
2018-Jul-18 01:26N 32°07' W 081°07'0 0.0
2018-Jul-18 00:56N 32°07' W 081°07'0 0.0
2018-Jul-18 00:26N 32°07' W 081°07'0 0.0
2018-Jul-17 23:56N 32°07' W 081°07'0 0.0
2018-Jul-17 23:26N 32°07' W 081°07'0 0.0
2018-Jul-17 22:56N 32°07' W 081°07'0 0.0
2018-Jul-17 22:30N 32°07' W 081°07'0 0.0
2018-Jul-17 22:00N 32°07' W 081°07'0 0.0
2018-Jul-17 21:30N 32°07' W 081°07'0 0.0
2018-Jul-17 21:00N 32°07' W 081°07'0 0.0
2018-Jul-17 20:30N 32°07' W 081°07'0 0.0
2018-Jul-17 20:00N 32°07' W 081°07'0 0.0
2018-Jul-17 19:30N 32°07' W 081°07'0 0.0
2018-Jul-17 19:00N 32°07' W 081°07'0 0.0
2018-Jul-17 18:30N 32°07' W 081°07'0 0.0
2018-Jul-17 18:00N 32°07' W 081°07'0 0.0
2018-Jul-17 17:30N 32°07' W 081°07'1 1.2
2018-Jul-17 17:00N 32°06' W 081°07'3 6.1
2018-Jul-17 16:30N 32°05' W 081°04'4 7.2
2018-Jul-17 16:00N 32°05' W 080°59'5 9.0
2018-Jul-17 15:30N 32°02' W 080°55'4 9.0
2018-Jul-17 15:00N 32°02' W 080°50'4 8.1
2018-Jul-17 14:30N 31°59' W 080°47'3 6.2
2018-Jul-17 14:00N 31°59' W 080°43'2 3.8
2018-Jul-17 13:30N 31°60' W 080°41'0 0.0
2018-Jul-17 13:00N 31°60' W 080°41'0 0.0
2018-Jul-17 12:28N 31°60' W 080°41'0 0.0
2018-Jul-17 11:59N 31°60' W 080°41'0 0.2
2018-Jul-17 11:30N 31°60' W 080°41'0 0.7
2018-Jul-17 11:00N 32°00' W 080°41'1 1.7
2018-Jul-17 10:30N 32°01' W 080°40'1 2.9
2018-Jul-17 10:00N 32°02' W 080°40'1 2.5
2018-Jul-17 09:30N 32°02' W 080°42'2 3.7
2018-Jul-17 08:55N 31°60' W 080°42'1 3.2
2018-Jul-17 08:30N 31°59' W 080°41'2 3.3
2018-Jul-17 07:50N 31°58' W 080°39'1 3.2
2018-Jul-17 07:30N 31°58' W 080°37'2 3.3
2018-Jul-17 07:00N 31°59' W 080°35'2 3.3
2018-Jul-17 06:30N 31°59' W 080°34'2 3.2
2018-Jul-17 06:00N 31°59' W 080°32'2 3.3
2018-Jul-17 05:30N 31°59' W 080°30'2 3.3
2018-Jul-17 04:56N 32°00' W 080°28'2 3.4
2018-Jul-17 04:29N 32°01' W 080°27'2 4.0
2018-Jul-17 03:58N 32°03' W 080°28'2 4.0
2018-Jul-17 03:29N 32°04' W 080°30'2 4.1
2018-Jul-17 03:00N 32°04' W 080°33'2 3.9
2018-Jul-17 02:30N 32°04' W 080°35'2 3.7
2018-Jul-17 02:00N 32°03' W 080°37'2 3.5
2018-Jul-17 01:30N 32°03' W 080°39'303 6.9
2018-Jul-15 05:45N 27°03' W 079°59'310.7
2018-Jul-15 05:30N 27°00' W 079°58'28 9.7
2018-Jul-15 02:37N 26°32' W 079°59'1 8.3
2018-Jul-15 02:30N 26°31' W 079°59'4 8.3
2018-Jul-15 02:00N 26°27' W 079°59'4 8.3
2018-Jul-15 01:30N 26°23' W 079°59'4 8.3
2018-Jul-15 01:00N 26°19' W 079°59'4 8.1
2018-Jul-15 00:30N 26°15' W 079°60'4 8.0
2018-Jul-15 00:00N 26°11' W 080°00'4 8.4
2018-Jul-14 23:30N 26°07' W 080°01'4 8.8
2018-Jul-14 23:00N 26°02' W 080°01'4 9.0
2018-Jul-14 22:30N 25°58' W 080°01'5 9.4
2018-Jul-14 22:00N 25°53' W 080°02'510.1
2018-Jul-14 21:30N 25°48' W 080°01'510.4
2018-Jul-14 21:00N 25°43' W 080°01'510.6
2018-Jul-14 20:30N 25°38' W 080°00'  
Track history (hours):
 
Tides and Currents Weather Stations Pressure Air Temp Water Temp Dewpoint Dewpoint Depression Visibility Wind Speed Wind Dir Waves Ship Positions

Weddell Sea

Owner: Kirby Offshore Marine, LLC, Staten Island, NY. More information available from US FCC via Universal Licensing System and Coast Guard Vessel Documentation Center.

Last reported at 2018-Jul-20 02:19 UTC. Time now 2018-Jul-20 02:55 UTC.
Position N 32°07' W 081°07'.

Length 34 m; draft 5 m.

Type: Tow > 200 m length. MMSI: 367175780.

Date/timePositionNaut miles runAvg speedWind from/ knotsBaromVisibWave heightAir tempDewpointWater temp
2018-Jul-20 02:19N 32°07' W 081°07'0 0.0
2018-Jul-20 01:55N 32°07' W 081°07'0 0.0
2018-Jul-20 01:25N 32°07' W 081°07'0 0.0
2018-Jul-20 00:49N 32°07' W 081°07'0 0.0
2018-Jul-20 00:13N 32°07' W 081°07'0 0.0
2018-Jul-19 23:55N 32°07' W 081°07'0 0.0
2018-Jul-19 23:25N 32°07' W 081°07'0 0.0
2018-Jul-19 23:00N 32°07' W 081°07'0 0.0
2018-Jul-19 22:30N 32°07' W 081°07'0 0.0
2018-Jul-19 22:00N 32°07' W 081°07'0 0.0
2018-Jul-19 21:30N 32°07' W 081°07'0 0.0
2018-Jul-19 21:00N 32°07' W 081°07'0 0.0
2018-Jul-19 20:30N 32°07' W 081°07'0 0.0
2018-Jul-19 20:00N 32°07' W 081°07'0 0.0
2018-Jul-19 19:30N 32°07' W 081°07'0 0.0
2018-Jul-19 19:00N 32°07' W 081°07'0 0.2
2018-Jul-19 18:30N 32°07' W 081°07'3 5.3
2018-Jul-19 18:00N 32°05' W 081°05'4 7.6
2018-Jul-19 17:29N 32°06' W 081°01'5 9.6
2018-Jul-19 16:58N 32°03' W 080°56'4 8.6
2018-Jul-19 16:30N 32°02' W 080°51'2 5.0
2018-Jul-19 16:01N 32°02' W 080°49'0 0.2
2018-Jul-19 15:30N 32°02' W 080°49'1 1.5
2018-Jul-19 15:00N 32°01' W 080°48'7 6.7
2018-Jul-19 14:00N 31°57' W 080°42'2 3.2
2018-Jul-19 13:29N 31°55' W 080°42'3 4.3
2018-Jul-19 12:41N 31°52' W 080°43'1 7.6
2018-Jul-19 12:30N 31°53' W 080°44'4 7.5
2018-Jul-19 12:00N 31°57' W 080°44'3 5.1
2018-Jul-19 11:30N 31°59' W 080°45'3 6.9
2018-Jul-19 11:00N 32°01' W 080°48'4 8.0
2018-Jul-19 10:30N 32°02' W 080°53'4 8.2
2018-Jul-19 09:59N 32°04' W 080°57'4 7.6
2018-Jul-19 09:30N 32°06' W 081°01'4 8.0
2018-Jul-19 09:00N 32°05' W 081°06'2 2.9
2018-Jul-19 08:20N 32°07' W 081°07'0 0.1
2018-Jul-19 07:56N 32°07' W 081°07'0 0.0
2018-Jul-19 07:26N 32°07' W 081°07'0 0.1
2018-Jul-19 06:56N 32°07' W 081°07'0 0.0
2018-Jul-19 06:26N 32°07' W 081°07'0 0.0
2018-Jul-19 05:56N 32°07' W 081°07'0 0.0
2018-Jul-19 05:26N 32°07' W 081°07'0 0.0
2018-Jul-19 04:56N 32°07' W 081°07'0 0.0
2018-Jul-19 04:26N 32°07' W 081°07'0 0.0
2018-Jul-19 03:56N 32°07' W 081°07'0 0.0
2018-Jul-19 03:26N 32°07' W 081°07'0 0.0
2018-Jul-19 02:56N 32°07' W 081°07'0 0.0
2018-Jul-19 02:26N 32°07' W 081°07'0 0.0
2018-Jul-19 01:56N 32°07' W 081°07'0 0.0
2018-Jul-19 01:26N 32°07' W 081°07'0 0.0
2018-Jul-19 00:56N 32°07' W 081°07'0 0.0
2018-Jul-19 00:26N 32°07' W 081°07'0 0.0
2018-Jul-18 23:56N 32°07' W 081°07'0 0.0
2018-Jul-18 23:26N 32°07' W 081°07'0 0.0
2018-Jul-18 22:56N 32°07' W 081°07'0 0.0
2018-Jul-18 22:26N 32°07' W 081°07'0 0.0
2018-Jul-18 21:56N 32°07' W 081°07'0 0.0
2018-Jul-18 21:26N 32°07' W 081°07'0 0.0
2018-Jul-18 20:56N 32°07' W 081°07'0 0.0
2018-Jul-18 20:26N 32°07' W 081°07'0 0.0
2018-Jul-18 19:56N 32°07' W 081°07'0 0.0
2018-Jul-18 19:26N 32°07' W 081°07'0 0.0
2018-Jul-18 18:56N 32°07' W 081°07'0 0.0
2018-Jul-18 18:26N 32°07' W 081°07'0 0.0
2018-Jul-18 17:56N 32°07' W 081°07'0 0.0
2018-Jul-18 17:26N 32°07' W 081°07'0 0.0
2018-Jul-18 16:56N 32°07' W 081°07'0 0.0
2018-Jul-18 16:14N 32°07' W 081°07'0 0.0
2018-Jul-18 15:44N 32°07' W 081°07'0 0.0
2018-Jul-18 15:26N 32°07' W 081°07'0 0.0
2018-Jul-18 14:50N 32°07' W 081°07'0 0.0
2018-Jul-18 14:26N 32°07' W 081°07'0 0.0
2018-Jul-18 13:26N 32°07' W 081°07'0 0.0
2018-Jul-18 12:56N 32°07' W 081°07'0 0.0
2018-Jul-18 12:26N 32°07' W 081°07'0 0.0
2018-Jul-18 11:44N 32°07' W 081°07'0 0.0
2018-Jul-18 11:26N 32°07' W 081°07'0 0.0
2018-Jul-18 10:20N 32°07' W 081°07'0 0.0
2018-Jul-18 09:50N 32°07' W 081°07'0 0.0
2018-Jul-18 09:26N 32°07' W 081°07'0 0.0
2018-Jul-18 08:56N 32°07' W 081°07'0 0.0
2018-Jul-18 08:26N 32°07' W 081°07'0 0.0
2018-Jul-18 07:50N 32°07' W 081°07'0 0.0
2018-Jul-18 07:26N 32°07' W 081°07'0 0.0
2018-Jul-18 06:56N 32°07' W 081°07'0 0.0
2018-Jul-18 06:26N 32°07' W 081°07'0 0.0
2018-Jul-18 05:56N 32°07' W 081°07'0 0.0
2018-Jul-18 05:14N 32°07' W 081°07'0 0.0
2018-Jul-18 04:56N 32°07' W 081°07'0 0.0
2018-Jul-18 04:26N 32°07' W 081°07'0 0.0
2018-Jul-18 03:56N 32°07' W 081°07'0 0.0
2018-Jul-18 03:20N 32°07' W 081°07'0 0.0
2018-Jul-18 02:56N 32°07' W 081°07'0 0.0
2018-Jul-18 02:26N 32°07' W 081°07'0 0.0
2018-Jul-18 01:56N 32°07' W 081°07'0 0.0
2018-Jul-18 01:26N 32°07' W 081°07'0 0.0
2018-Jul-18 00:56N 32°07' W 081°07'0 0.0
2018-Jul-18 00:26N 32°07' W 081°07'0 0.0
2018-Jul-17 23:56N 32°07' W 081°07'0 0.0
2018-Jul-17 23:26N 32°07' W 081°07'0 0.0
2018-Jul-17 22:56N 32°07' W 081°07'0 0.0
2018-Jul-17 22:30N 32°07' W 081°07'0 0.0
2018-Jul-17 22:00N 32°07' W 081°07'0 0.0
2018-Jul-17 21:30N 32°07' W 081°07'0 0.0
2018-Jul-17 21:00N 32°07' W 081°07'0 0.0
2018-Jul-17 20:30N 32°07' W 081°07'0 0.0
2018-Jul-17 20:00N 32°07' W 081°07'0 0.0
2018-Jul-17 19:30N 32°07' W 081°07'0 0.0
2018-Jul-17 19:00N 32°07' W 081°07'0 0.0
2018-Jul-17 18:30N 32°07' W 081°07'0 0.0
2018-Jul-17 18:00N 32°07' W 081°07'0 0.0
2018-Jul-17 17:30N 32°07' W 081°07'1 1.2
2018-Jul-17 17:00N 32°06' W 081°07'3 6.1
2018-Jul-17 16:30N 32°05' W 081°04'4 7.2
2018-Jul-17 16:00N 32°05' W 080°59'5 9.0
2018-Jul-17 15:30N 32°02' W 080°55'4 9.0
2018-Jul-17 15:00N 32°02' W 080°50'4 8.1
2018-Jul-17 14:30N 31°59' W 080°47'3 6.2
2018-Jul-17 14:00N 31°59' W 080°43'2 3.8
2018-Jul-17 13:30N 31°60' W 080°41'0 0.0
2018-Jul-17 13:00N 31°60' W 080°41'0 0.0
2018-Jul-17 12:28N 31°60' W 080°41'0 0.0
2018-Jul-17 11:59N 31°60' W 080°41'0 0.2
2018-Jul-17 11:30N 31°60' W 080°41'0 0.7
2018-Jul-17 11:00N 32°00' W 080°41'1 1.7
2018-Jul-17 10:30N 32°01' W 080°40'1 2.9
2018-Jul-17 10:00N 32°02' W 080°40'1 2.5
2018-Jul-17 09:30N 32°02' W 080°42'2 3.7
2018-Jul-17 08:55N 31°60' W 080°42'1 3.2
2018-Jul-17 08:30N 31°59' W 080°41'2 3.3
2018-Jul-17 07:50N 31°58' W 080°39'1 3.2
2018-Jul-17 07:30N 31°58' W 080°37'2 3.3
2018-Jul-17 07:00N 31°59' W 080°35'2 3.3
2018-Jul-17 06:30N 31°59' W 080°34'2 3.2
2018-Jul-17 06:00N 31°59' W 080°32'2 3.3
2018-Jul-17 05:30N 31°59' W 080°30'2 3.3
2018-Jul-17 04:56N 32°00' W 080°28'2 3.4
2018-Jul-17 04:29N 32°01' W 080°27'2 4.0
2018-Jul-17 03:58N 32°03' W 080°28'2 4.0
2018-Jul-17 03:29N 32°04' W 080°30'2 4.1
2018-Jul-17 03:00N 32°04' W 080°33'2 3.9
2018-Jul-17 02:30N 32°04' W 080°35'2 3.7
2018-Jul-17 02:00N 32°03' W 080°37'2 3.5
2018-Jul-17 01:30N 32°03' W 080°39'303 6.9
2018-Jul-15 05:45N 27°03' W 079°59'310.7
2018-Jul-15 05:30N 27°00' W 079°58'28 9.7
2018-Jul-15 02:37N 26°32' W 079°59'1 8.3
2018-Jul-15 02:30N 26°31' W 079°59'4 8.3
2018-Jul-15 02:00N 26°27' W 079°59'4 8.3
2018-Jul-15 01:30N 26°23' W 079°59'4 8.3
2018-Jul-15 01:00N 26°19' W 079°59'4 8.1
2018-Jul-15 00:30N 26°15' W 079°60'4 8.0
2018-Jul-15 00:00N 26°11' W 080°00'4 8.4
2018-Jul-14 23:30N 26°07' W 080°01'4 8.8
2018-Jul-14 23:00N 26°02' W 080°01'4 9.0
2018-Jul-14 22:30N 25°58' W 080°01'5 9.4
2018-Jul-14 22:00N 25°53' W 080°02'510.1
2018-Jul-14 21:30N 25°48' W 080°01'510.4
2018-Jul-14 21:00N 25°43' W 080°01'510.6
2018-Jul-14 20:30N 25°38' W 080°00'  

Dump ship's entire track history